sensor_id;sensor_type;location;lat;lon;timestamp;temperature;humidity
1956;DHT22;978;48.314;11.562;2024-03-08T00:02:04;20.30;61.30
1956;DHT22;978;48.314;11.562;2024-03-08T00:04:31;20.30;61.20
1956;DHT22;978;48.314;11.562;2024-03-08T00:06:58;20.30;61.20
1956;DHT22;978;48.314;11.562;2024-03-08T00:09:26;20.30;61.20
1956;DHT22;978;48.314;11.562;2024-03-08T00:11:53;20.30;61.20
1956;DHT22;978;48.314;11.562;2024-03-08T00:14:20;20.30;61.20
1956;DHT22;978;48.314;11.562;2024-03-08T00:16:47;20.30;61.20
1956;DHT22;978;48.314;11.562;2024-03-08T00:19:14;20.30;61.20
1956;DHT22;978;48.314;11.562;2024-03-08T00:21:41;20.30;61.20
1956;DHT22;978;48.314;11.562;2024-03-08T00:24:08;20.30;61.20
1956;DHT22;978;48.314;11.562;2024-03-08T00:26:36;20.30;61.20
1956;DHT22;978;48.314;11.562;2024-03-08T00:29:03;20.30;61.80
1956;DHT22;978;48.314;11.562;2024-03-08T00:31:30;20.30;61.20
1956;DHT22;978;48.314;11.562;2024-03-08T00:33:57;20.30;61.20
1956;DHT22;978;48.314;11.562;2024-03-08T00:36:25;20.30;61.20
1956;DHT22;978;48.314;11.562;2024-03-08T00:38:52;20.30;61.10
1956;DHT22;978;48.314;11.562;2024-03-08T00:41:18;20.30;61.10
1956;DHT22;978;48.314;11.562;2024-03-08T00:43:47;20.30;61.10
1956;DHT22;978;48.314;11.562;2024-03-08T00:46:14;20.30;61.10
1956;DHT22;978;48.314;11.562;2024-03-08T00:48:41;20.30;61.10
1956;DHT22;978;48.314;11.562;2024-03-08T00:51:09;20.30;61.10
1956;DHT22;978;48.314;11.562;2024-03-08T00:53:35;20.30;61.00
1956;DHT22;978;48.314;11.562;2024-03-08T00:56:03;20.30;61.00
1956;DHT22;978;48.314;11.562;2024-03-08T00:58:30;20.30;61.00
1956;DHT22;978;48.314;11.562;2024-03-08T01:00:58;20.30;61.00
1956;DHT22;978;48.314;11.562;2024-03-08T01:03:25;20.30;61.00
1956;DHT22;978;48.314;11.562;2024-03-08T01:05:52;20.30;61.00
1956;DHT22;978;48.314;11.562;2024-03-08T01:08:18;20.30;61.00
1956;DHT22;978;48.314;11.562;2024-03-08T01:10:45;20.30;61.00
1956;DHT22;978;48.314;11.562;2024-03-08T01:13:12;20.30;61.00
1956;DHT22;978;48.314;11.562;2024-03-08T01:15:39;20.30;61.00
1956;DHT22;978;48.314;11.562;2024-03-08T01:18:08;20.30;61.00
1956;DHT22;978;48.314;11.562;2024-03-08T01:20:35;20.30;60.90
1956;DHT22;978;48.314;11.562;2024-03-08T01:23:02;20.30;60.90
1956;DHT22;978;48.314;11.562;2024-03-08T01:25:32;20.30;60.90
1956;DHT22;978;48.314;11.562;2024-03-08T01:27:59;20.30;61.50
1956;DHT22;978;48.314;11.562;2024-03-08T01:30:26;20.30;60.90
1956;DHT22;978;48.314;11.562;2024-03-08T01:32:53;20.30;60.90
1956;DHT22;978;48.314;11.562;2024-03-08T01:35:22;20.30;60.90
1956;DHT22;978;48.314;11.562;2024-03-08T01:37:48;20.30;60.80
1956;DHT22;978;48.314;11.562;2024-03-08T01:40:16;20.30;60.90
1956;DHT22;978;48.314;11.562;2024-03-08T01:42:43;20.30;60.80
1956;DHT22;978;48.314;11.562;2024-03-08T01:45:10;20.30;60.80
1956;DHT22;978;48.314;11.562;2024-03-08T01:47:38;20.30;60.80
1956;DHT22;978;48.314;11.562;2024-03-08T01:50:06;20.30;60.80
1956;DHT22;978;48.314;11.562;2024-03-08T01:52:35;20.30;60.80
1956;DHT22;978;48.314;11.562;2024-03-08T01:55:05;20.30;60.80
1956;DHT22;978;48.314;11.562;2024-03-08T01:57:33;20.30;60.80
1956;DHT22;978;48.314;11.562;2024-03-08T02:00:00;20.30;60.70
1956;DHT22;978;48.314;11.562;2024-03-08T02:02:32;20.30;60.80
1956;DHT22;978;48.314;11.562;2024-03-08T02:05:00;20.30;60.80
1956;DHT22;978;48.314;11.562;2024-03-08T02:07:28;20.30;60.90
1956;DHT22;978;48.314;11.562;2024-03-08T02:09:57;20.30;60.70
1956;DHT22;978;48.314;11.562;2024-03-08T02:12:24;20.30;60.70
1956;DHT22;978;48.314;11.562;2024-03-08T02:14:50;20.30;60.70
1956;DHT22;978;48.314;11.562;2024-03-08T02:17:19;20.30;60.60
1956;DHT22;978;48.314;11.562;2024-03-08T02:19:46;20.30;60.70
1956;DHT22;978;48.314;11.562;2024-03-08T02:22:14;20.30;60.70
1956;DHT22;978;48.314;11.562;2024-03-08T02:24:41;20.30;60.60
1956;DHT22;978;48.314;11.562;2024-03-08T02:27:08;20.30;60.70
1956;DHT22;978;48.314;11.562;2024-03-08T02:29:37;20.30;60.60
1956;DHT22;978;48.314;11.562;2024-03-08T02:32:06;20.30;60.60
1956;DHT22;978;48.314;11.562;2024-03-08T02:34:33;20.30;60.60
1956;DHT22;978;48.314;11.562;2024-03-08T02:37:00;20.30;60.60
1956;DHT22;978;48.314;11.562;2024-03-08T02:39:28;20.30;60.60
1956;DHT22;978;48.314;11.562;2024-03-08T02:41:55;20.30;60.50
1956;DHT22;978;48.314;11.562;2024-03-08T02:44:22;20.30;60.60
1956;DHT22;978;48.314;11.562;2024-03-08T02:46:49;20.30;60.50
1956;DHT22;978;48.314;11.562;2024-03-08T02:49:16;20.30;60.50
1956;DHT22;978;48.314;11.562;2024-03-08T02:51:42;20.30;60.50
1956;DHT22;978;48.314;11.562;2024-03-08T02:54:08;20.30;60.50
1956;DHT22;978;48.314;11.562;2024-03-08T02:56:37;20.30;60.90
1956;DHT22;978;48.314;11.562;2024-03-08T02:59:04;20.30;60.50
1956;DHT22;978;48.314;11.562;2024-03-08T03:01:31;20.30;60.60
1956;DHT22;978;48.314;11.562;2024-03-08T03:03:58;20.30;60.50
1956;DHT22;978;48.314;11.562;2024-03-08T03:06:25;20.30;60.50
1956;DHT22;978;48.314;11.562;2024-03-08T03:08:52;20.30;60.50
1956;DHT22;978;48.314;11.562;2024-03-08T03:11:19;20.30;60.50
1956;DHT22;978;48.314;11.562;2024-03-08T03:13:47;20.30;60.50
1956;DHT22;978;48.314;11.562;2024-03-08T03:16:17;20.30;60.40
1956;DHT22;978;48.314;11.562;2024-03-08T03:18:45;20.30;60.50
1956;DHT22;978;48.314;11.562;2024-03-08T03:21:12;20.30;60.50
1956;DHT22;978;48.314;11.562;2024-03-08T03:23:39;20.30;60.40
1956;DHT22;978;48.314;11.562;2024-03-08T03:26:07;20.30;60.40
1956;DHT22;978;48.314;11.562;2024-03-08T03:28:36;20.30;60.50
1956;DHT22;978;48.314;11.562;2024-03-08T03:31:06;20.30;60.40
1956;DHT22;978;48.314;11.562;2024-03-08T03:33:33;20.30;61.00
1956;DHT22;978;48.314;11.562;2024-03-08T03:36:02;20.30;60.40
1956;DHT22;978;48.314;11.562;2024-03-08T03:38:30;20.30;60.40
1956;DHT22;978;48.314;11.562;2024-03-08T03:40:57;20.30;60.40
1956;DHT22;978;48.314;11.562;2024-03-08T03:43:32;20.30;60.40
1956;DHT22;978;48.314;11.562;2024-03-08T03:45:59;20.30;60.40
1956;DHT22;978;48.314;11.562;2024-03-08T03:48:27;20.30;60.40
1956;DHT22;978;48.314;11.562;2024-03-08T03:50:54;20.30;60.30
1956;DHT22;978;48.314;11.562;2024-03-08T03:53:21;20.30;60.40
1956;DHT22;978;48.314;11.562;2024-03-08T03:55:48;20.30;60.40
1956;DHT22;978;48.314;11.562;2024-03-08T03:58:15;20.30;60.30
1956;DHT22;978;48.314;11.562;2024-03-08T04:00:42;20.30;60.30
1956;DHT22;978;48.314;11.562;2024-03-08T04:03:08;20.30;60.30
1956;DHT22;978;48.314;11.562;2024-03-08T04:05:37;20.30;60.30
1956;DHT22;978;48.314;11.562;2024-03-08T04:08:05;20.30;60.40
1956;DHT22;978;48.314;11.562;2024-03-08T04:10:32;20.30;60.30
1956;DHT22;978;48.314;11.562;2024-03-08T04:12:59;20.30;60.30
1956;DHT22;978;48.314;11.562;2024-03-08T04:15:26;20.30;60.20
1956;DHT22;978;48.314;11.562;2024-03-08T04:17:52;20.30;60.20
1956;DHT22;978;48.314;11.562;2024-03-08T04:20:20;20.30;60.30
1956;DHT22;978;48.314;11.562;2024-03-08T04:22:48;20.30;60.30
1956;DHT22;978;48.314;11.562;2024-03-08T04:25:15;20.30;60.30
1956;DHT22;978;48.314;11.562;2024-03-08T04:27:42;20.30;60.30
1956;DHT22;978;48.314;11.562;2024-03-08T04:30:10;20.30;60.20
1956;DHT22;978;48.314;11.562;2024-03-08T04:32:37;20.30;60.20
1956;DHT22;978;48.314;11.562;2024-03-08T04:35:05;20.30;60.20
1956;DHT22;978;48.314;11.562;2024-03-08T04:37:32;20.30;60.30
1956;DHT22;978;48.314;11.562;2024-03-08T04:40:01;20.30;60.20
1956;DHT22;978;48.314;11.562;2024-03-08T04:42:28;20.30;60.20
1956;DHT22;978;48.314;11.562;2024-03-08T04:44:58;20.30;60.20
1956;DHT22;978;48.314;11.562;2024-03-08T04:47:25;20.30;60.20
1956;DHT22;978;48.314;11.562;2024-03-08T04:49:52;20.30;60.20
1956;DHT22;978;48.314;11.562;2024-03-08T04:52:20;20.30;60.20
1956;DHT22;978;48.314;11.562;2024-03-08T04:54:47;20.30;60.20
1956;DHT22;978;48.314;11.562;2024-03-08T04:57:15;20.30;60.20
1956;DHT22;978;48.314;11.562;2024-03-08T04:59:43;20.30;60.20
1956;DHT22;978;48.314;11.562;2024-03-08T05:02:10;20.30;60.20
1956;DHT22;978;48.314;11.562;2024-03-08T05:04:37;20.30;60.20
1956;DHT22;978;48.314;11.562;2024-03-08T05:07:04;20.30;60.20
1956;DHT22;978;48.314;11.562;2024-03-08T05:09:31;20.30;60.10
1956;DHT22;978;48.314;11.562;2024-03-08T05:11:58;20.30;60.20
1956;DHT22;978;48.314;11.562;2024-03-08T05:14:26;22.00;61.10
1956;DHT22;978;48.314;11.562;2024-03-08T05:16:54;20.30;60.20
1956;DHT22;978;48.314;11.562;2024-03-08T05:19:21;20.30;60.10
1956;DHT22;978;48.314;11.562;2024-03-08T05:21:49;20.30;60.10
1956;DHT22;978;48.314;11.562;2024-03-08T05:24:16;20.30;60.10
1956;DHT22;978;48.314;11.562;2024-03-08T05:26:43;20.30;60.20
1956;DHT22;978;48.314;11.562;2024-03-08T05:29:10;20.30;60.10
1956;DHT22;978;48.314;11.562;2024-03-08T05:31:45;20.30;60.20
1956;DHT22;978;48.314;11.562;2024-03-08T05:34:13;20.30;60.10
1956;DHT22;978;48.314;11.562;2024-03-08T05:36:40;20.30;60.10
1956;DHT22;978;48.314;11.562;2024-03-08T05:39:07;20.30;60.10
1956;DHT22;978;48.314;11.562;2024-03-08T05:41:34;20.30;60.20
1956;DHT22;978;48.314;11.562;2024-03-08T05:44:01;20.30;60.70
1956;DHT22;978;48.314;11.562;2024-03-08T05:46:28;20.30;60.10
1956;DHT22;978;48.314;11.562;2024-03-08T05:48:57;20.30;60.10
1956;DHT22;978;48.314;11.562;2024-03-08T05:51:24;20.30;60.10
1956;DHT22;978;48.314;11.562;2024-03-08T05:53:52;20.30;60.20
1956;DHT22;978;48.314;11.562;2024-03-08T05:56:22;20.30;60.20
1956;DHT22;978;48.314;11.562;2024-03-08T05:58:49;20.30;60.20
1956;DHT22;978;48.314;11.562;2024-03-08T06:01:16;20.30;60.20
1956;DHT22;978;48.314;11.562;2024-03-08T06:03:43;20.30;60.20
1956;DHT22;978;48.314;11.562;2024-03-08T06:06:13;20.30;60.20
1956;DHT22;978;48.314;11.562;2024-03-08T06:08:40;20.30;60.20
1956;DHT22;978;48.314;11.562;2024-03-08T06:11:08;20.30;60.70
1956;DHT22;978;48.314;11.562;2024-03-08T06:13:35;20.30;60.20
1956;DHT22;978;48.314;11.562;2024-03-08T06:16:02;20.30;60.10
1956;DHT22;978;48.314;11.562;2024-03-08T06:18:30;20.30;60.10
1956;DHT22;978;48.314;11.562;2024-03-08T06:20:57;20.30;60.20
1956;DHT22;978;48.314;11.562;2024-03-08T06:23:25;20.30;60.20
1956;DHT22;978;48.314;11.562;2024-03-08T06:25:53;20.30;60.20
1956;DHT22;978;48.314;11.562;2024-03-08T06:28:20;20.30;60.20
1956;DHT22;978;48.314;11.562;2024-03-08T06:30:47;20.30;60.20
1956;DHT22;978;48.314;11.562;2024-03-08T06:33:13;20.30;60.20
1956;DHT22;978;48.314;11.562;2024-03-08T06:35:41;20.30;60.20
1956;DHT22;978;48.314;11.562;2024-03-08T06:38:08;20.30;60.20
1956;DHT22;978;48.314;11.562;2024-03-08T06:40:38;20.30;60.20
1956;DHT22;978;48.314;11.562;2024-03-08T06:43:06;20.30;60.10
1956;DHT22;978;48.314;11.562;2024-03-08T06:45:33;20.30;60.10
1956;DHT22;978;48.314;11.562;2024-03-08T06:48:02;20.30;60.20
1956;DHT22;978;48.314;11.562;2024-03-08T06:50:35;20.30;60.20
1956;DHT22;978;48.314;11.562;2024-03-08T06:53:02;20.30;60.20
1956;DHT22;978;48.314;11.562;2024-03-08T06:55:32;20.30;60.20
1956;DHT22;978;48.314;11.562;2024-03-08T06:58:00;20.20;60.10
1956;DHT22;978;48.314;11.562;2024-03-08T07:00:27;20.30;60.20
1956;DHT22;978;48.314;11.562;2024-03-08T07:02:56;20.30;60.20
1956;DHT22;978;48.314;11.562;2024-03-08T07:05:26;20.30;60.20
1956;DHT22;978;48.314;11.562;2024-03-08T07:07:53;20.30;60.20
1956;DHT22;978;48.314;11.562;2024-03-08T07:10:20;20.30;60.30
1956;DHT22;978;48.314;11.562;2024-03-08T07:12:50;20.30;60.20
1956;DHT22;978;48.314;11.562;2024-03-08T07:15:18;20.30;60.20
1956;DHT22;978;48.314;11.562;2024-03-08T07:17:46;20.30;60.20
1956;DHT22;978;48.314;11.562;2024-03-08T07:20:13;20.30;60.20
1956;DHT22;978;48.314;11.562;2024-03-08T07:22:44;20.30;60.20
1956;DHT22;978;48.314;11.562;2024-03-08T07:25:13;20.30;60.10
1956;DHT22;978;48.314;11.562;2024-03-08T07:27:47;20.30;60.20
1956;DHT22;978;48.314;11.562;2024-03-08T07:30:14;20.30;60.10
1956;DHT22;978;48.314;11.562;2024-03-08T07:33:04;20.30;60.10
1956;DHT22;978;48.314;11.562;2024-03-08T07:35:32;20.30;60.20
1956;DHT22;978;48.314;11.562;2024-03-08T07:38:02;20.30;60.10
1956;DHT22;978;48.314;11.562;2024-03-08T07:40:31;20.30;60.10
1956;DHT22;978;48.314;11.562;2024-03-08T07:42:57;20.30;60.10
1956;DHT22;978;48.314;11.562;2024-03-08T07:45:24;20.20;60.00
1956;DHT22;978;48.314;11.562;2024-03-08T07:47:51;20.30;60.20
1956;DHT22;978;48.314;11.562;2024-03-08T07:50:20;20.30;60.10
1956;DHT22;978;48.314;11.562;2024-03-08T07:52:48;20.30;60.10
1956;DHT22;978;48.314;11.562;2024-03-08T07:55:15;20.30;60.10
1956;DHT22;978;48.314;11.562;2024-03-08T07:57:42;20.30;60.10
1956;DHT22;978;48.314;11.562;2024-03-08T08:00:10;20.30;60.10
1956;DHT22;978;48.314;11.562;2024-03-08T08:02:43;20.30;60.10
1956;DHT22;978;48.314;11.562;2024-03-08T08:05:11;20.30;60.10
1956;DHT22;978;48.314;11.562;2024-03-08T08:07:40;20.30;60.10
1956;DHT22;978;48.314;11.562;2024-03-08T08:10:11;20.30;60.10
1956;DHT22;978;48.314;11.562;2024-03-08T08:12:44;20.30;60.10
1956;DHT22;978;48.314;11.562;2024-03-08T08:15:11;20.30;60.10
1956;DHT22;978;48.314;11.562;2024-03-08T08:17:38;20.30;60.10
1956;DHT22;978;48.314;11.562;2024-03-08T08:20:05;20.30;60.10
1956;DHT22;978;48.314;11.562;2024-03-08T08:22:32;20.30;60.10
1956;DHT22;978;48.314;11.562;2024-03-08T08:25:01;18.90;59.40
1956;DHT22;978;48.314;11.562;2024-03-08T08:27:28;20.30;60.10
1956;DHT22;978;48.314;11.562;2024-03-08T08:29:55;20.30;60.10
1956;DHT22;978;48.314;11.562;2024-03-08T08:32:22;20.30;60.10
1956;DHT22;978;48.314;11.562;2024-03-08T08:34:49;20.30;60.10
1956;DHT22;978;48.314;11.562;2024-03-08T08:37:16;20.30;60.10
1956;DHT22;978;48.314;11.562;2024-03-08T08:39:43;20.30;60.10
1956;DHT22;978;48.314;11.562;2024-03-08T08:42:11;20.30;60.10
1956;DHT22;978;48.314;11.562;2024-03-08T08:44:38;20.30;60.10
1956;DHT22;978;48.314;11.562;2024-03-08T08:47:05;20.30;60.10
1956;DHT22;978;48.314;11.562;2024-03-08T08:49:33;20.30;60.00
1956;DHT22;978;48.314;11.562;2024-03-08T08:52:00;20.30;60.10
1956;DHT22;978;48.314;11.562;2024-03-08T08:54:28;20.30;60.10
1956;DHT22;978;48.314;11.562;2024-03-08T08:56:56;20.30;60.10
1956;DHT22;978;48.314;11.562;2024-03-08T08:59:25;20.30;60.10
1956;DHT22;978;48.314;11.562;2024-03-08T09:01:52;20.30;60.10
1956;DHT22;978;48.314;11.562;2024-03-08T09:04:19;20.30;60.10
1956;DHT22;978;48.314;11.562;2024-03-08T09:06:48;20.30;60.10
1956;DHT22;978;48.314;11.562;2024-03-08T09:09:15;20.30;60.10
1956;DHT22;978;48.314;11.562;2024-03-08T09:11:42;20.30;60.10
1956;DHT22;978;48.314;11.562;2024-03-08T09:14:09;20.30;60.20
1956;DHT22;978;48.314;11.562;2024-03-08T09:16:38;20.30;60.10
1956;DHT22;978;48.314;11.562;2024-03-08T09:19:05;20.30;60.10
1956;DHT22;978;48.314;11.562;2024-03-08T09:21:33;20.30;60.10
1956;DHT22;978;48.314;11.562;2024-03-08T09:24:00;20.30;60.10
1956;DHT22;978;48.314;11.562;2024-03-08T09:26:27;20.30;60.20
1956;DHT22;978;48.314;11.562;2024-03-08T09:28:54;20.30;60.20
1956;DHT22;978;48.314;11.562;2024-03-08T09:31:21;20.30;60.10
1956;DHT22;978;48.314;11.562;2024-03-08T09:33:49;20.30;60.10
1956;DHT22;978;48.314;11.562;2024-03-08T09:36:17;20.30;60.10
1956;DHT22;978;48.314;11.562;2024-03-08T09:38:44;20.30;60.10
1956;DHT22;978;48.314;11.562;2024-03-08T09:41:11;20.30;60.10
1956;DHT22;978;48.314;11.562;2024-03-08T09:43:38;20.30;60.10
1956;DHT22;978;48.314;11.562;2024-03-08T09:46:06;20.30;60.10
1956;DHT22;978;48.314;11.562;2024-03-08T09:48:34;20.30;60.10
1956;DHT22;978;48.314;11.562;2024-03-08T09:51:03;20.30;60.70
1956;DHT22;978;48.314;11.562;2024-03-08T09:53:30;20.30;60.10
1956;DHT22;978;48.314;11.562;2024-03-08T09:55:57;20.30;60.10
1956;DHT22;978;48.314;11.562;2024-03-08T09:58:24;20.30;60.10
1956;DHT22;978;48.314;11.562;2024-03-08T10:01:20;20.20;60.10
1956;DHT22;978;48.314;11.562;2024-03-08T10:03:47;20.30;60.10
1956;DHT22;978;48.314;11.562;2024-03-08T10:06:16;20.30;60.10
1956;DHT22;978;48.314;11.562;2024-03-08T10:08:48;20.30;60.10
1956;DHT22;978;48.314;11.562;2024-03-08T10:11:17;20.30;60.10
1956;DHT22;978;48.314;11.562;2024-03-08T10:13:44;20.30;60.10
1956;DHT22;978;48.314;11.562;2024-03-08T10:16:11;20.20;60.10
1956;DHT22;978;48.314;11.562;2024-03-08T10:18:38;20.30;60.10
1956;DHT22;978;48.314;11.562;2024-03-08T10:21:07;20.30;60.10
1956;DHT22;978;48.314;11.562;2024-03-08T10:23:36;20.30;60.20
1956;DHT22;978;48.314;11.562;2024-03-08T10:26:13;20.30;60.10
1956;DHT22;978;48.314;11.562;2024-03-08T10:28:41;20.30;60.10
1956;DHT22;978;48.314;11.562;2024-03-08T10:31:09;20.30;60.20
1956;DHT22;978;48.314;11.562;2024-03-08T10:33:36;20.30;60.20
1956;DHT22;978;48.314;11.562;2024-03-08T10:36:07;20.30;60.10
1956;DHT22;978;48.314;11.562;2024-03-08T10:38:37;20.30;60.20
1956;DHT22;978;48.314;11.562;2024-03-08T10:41:05;20.30;60.10
1956;DHT22;978;48.314;11.562;2024-03-08T10:43:40;20.30;60.10
1956;DHT22;978;48.314;11.562;2024-03-08T10:46:20;20.30;60.20
1956;DHT22;978;48.314;11.562;2024-03-08T10:48:50;20.30;60.20
1956;DHT22;978;48.314;11.562;2024-03-08T10:51:19;20.30;60.20
1956;DHT22;978;48.314;11.562;2024-03-08T10:53:49;20.30;60.20
1956;DHT22;978;48.314;11.562;2024-03-08T10:56:16;20.30;60.20
1956;DHT22;978;48.314;11.562;2024-03-08T10:58:44;20.30;60.20
1956;DHT22;978;48.314;11.562;2024-03-08T11:01:12;20.30;60.20
1956;DHT22;978;48.314;11.562;2024-03-08T11:03:45;20.30;60.20
1956;DHT22;978;48.314;11.562;2024-03-08T11:06:15;20.30;60.30
1956;DHT22;978;48.314;11.562;2024-03-08T11:08:42;20.30;60.20
1956;DHT22;978;48.314;11.562;2024-03-08T11:11:29;20.30;60.20
1956;DHT22;978;48.314;11.562;2024-03-08T11:14:00;20.30;60.20
1956;DHT22;978;48.314;11.562;2024-03-08T11:16:38;20.30;60.20
1956;DHT22;978;48.314;11.562;2024-03-08T11:19:24;20.30;60.30
1956;DHT22;978;48.314;11.562;2024-03-08T11:21:58;20.30;60.20
1956;DHT22;978;48.314;11.562;2024-03-08T11:24:25;20.30;60.20
1956;DHT22;978;48.314;11.562;2024-03-08T11:26:57;20.30;60.20
1956;DHT22;978;48.314;11.562;2024-03-08T11:29:35;20.20;60.20
1956;DHT22;978;48.314;11.562;2024-03-08T11:32:07;20.30;60.30
1956;DHT22;978;48.314;11.562;2024-03-08T11:34:34;20.30;60.30
1956;DHT22;978;48.314;11.562;2024-03-08T11:37:03;20.30;60.20
1956;DHT22;978;48.314;11.562;2024-03-08T11:39:30;20.30;60.30
1956;DHT22;978;48.314;11.562;2024-03-08T11:41:58;20.30;60.30
1956;DHT22;978;48.314;11.562;2024-03-08T11:44:27;20.30;60.30
1956;DHT22;978;48.314;11.562;2024-03-08T11:46:54;20.30;60.30
1956;DHT22;978;48.314;11.562;2024-03-08T11:49:21;20.30;60.30
1956;DHT22;978;48.314;11.562;2024-03-08T11:51:51;20.30;60.30
1956;DHT22;978;48.314;11.562;2024-03-08T11:54:19;20.30;60.30
1956;DHT22;978;48.314;11.562;2024-03-08T11:56:46;20.30;60.30
1956;DHT22;978;48.314;11.562;2024-03-08T11:59:15;20.30;60.30
1956;DHT22;978;48.314;11.562;2024-03-08T12:01:43;20.30;60.30
1956;DHT22;978;48.314;11.562;2024-03-08T12:04:12;20.30;60.30
1956;DHT22;978;48.314;11.562;2024-03-08T12:06:40;20.30;60.30
1956;DHT22;978;48.314;11.562;2024-03-08T12:09:10;20.30;60.30
1956;DHT22;978;48.314;11.562;2024-03-08T12:11:38;20.30;60.30
1956;DHT22;978;48.314;11.562;2024-03-08T12:14:06;20.30;60.30
1956;DHT22;978;48.314;11.562;2024-03-08T12:16:36;20.30;60.30
1956;DHT22;978;48.314;11.562;2024-03-08T12:19:03;20.30;60.30
1956;DHT22;978;48.314;11.562;2024-03-08T12:21:32;20.30;60.30
1956;DHT22;978;48.314;11.562;2024-03-08T12:24:05;20.30;60.30
1956;DHT22;978;48.314;11.562;2024-03-08T12:26:35;20.30;60.20
1956;DHT22;978;48.314;11.562;2024-03-08T12:29:16;20.30;60.20
1956;DHT22;978;48.314;11.562;2024-03-08T12:31:47;20.30;60.20
1956;DHT22;978;48.314;11.562;2024-03-08T12:34:15;20.30;60.20
1956;DHT22;978;48.314;11.562;2024-03-08T12:36:46;20.30;60.20
1956;DHT22;978;48.314;11.562;2024-03-08T12:39:18;20.30;60.20
1956;DHT22;978;48.314;11.562;2024-03-08T12:41:48;20.30;60.20
1956;DHT22;978;48.314;11.562;2024-03-08T12:44:15;20.30;60.20
1956;DHT22;978;48.314;11.562;2024-03-08T12:46:44;20.30;60.20
1956;DHT22;978;48.314;11.562;2024-03-08T12:49:12;20.30;60.20
1956;DHT22;978;48.314;11.562;2024-03-08T12:51:43;20.30;60.20
1956;DHT22;978;48.314;11.562;2024-03-08T12:54:10;20.30;60.20
1956;DHT22;978;48.314;11.562;2024-03-08T12:56:37;20.30;60.20
1956;DHT22;978;48.314;11.562;2024-03-08T12:59:06;20.30;60.10
1956;DHT22;978;48.314;11.562;2024-03-08T13:01:34;20.30;60.10
1956;DHT22;978;48.314;11.562;2024-03-08T13:04:03;20.30;60.20
1956;DHT22;978;48.314;11.562;2024-03-08T13:06:33;20.30;60.20
1956;DHT22;978;48.314;11.562;2024-03-08T13:09:00;20.30;60.10
1956;DHT22;978;48.314;11.562;2024-03-08T13:11:31;20.30;60.10
1956;DHT22;978;48.314;11.562;2024-03-08T13:14:02;20.30;60.10
1956;DHT22;978;48.314;11.562;2024-03-08T13:16:30;20.30;60.10
1956;DHT22;978;48.314;11.562;2024-03-08T13:18:58;20.30;60.10
1956;DHT22;978;48.314;11.562;2024-03-08T13:21:25;20.30;60.10
1956;DHT22;978;48.314;11.562;2024-03-08T13:23:53;20.30;60.10
1956;DHT22;978;48.314;11.562;2024-03-08T13:26:20;20.30;60.10
1956;DHT22;978;48.314;11.562;2024-03-08T13:28:48;20.30;60.10
1956;DHT22;978;48.314;11.562;2024-03-08T13:31:19;20.30;60.10
1956;DHT22;978;48.314;11.562;2024-03-08T13:33:46;20.30;60.10
1956;DHT22;978;48.314;11.562;2024-03-08T13:36:13;20.30;60.10
1956;DHT22;978;48.314;11.562;2024-03-08T13:38:42;20.30;60.10
1956;DHT22;978;48.314;11.562;2024-03-08T13:41:11;20.30;60.10
1956;DHT22;978;48.314;11.562;2024-03-08T13:43:40;20.30;60.10
1956;DHT22;978;48.314;11.562;2024-03-08T13:46:07;20.30;60.10
1956;DHT22;978;48.314;11.562;2024-03-08T13:48:36;20.30;60.10
1956;DHT22;978;48.314;11.562;2024-03-08T13:51:04;20.30;60.10
1956;DHT22;978;48.314;11.562;2024-03-08T13:53:32;20.30;60.10
1956;DHT22;978;48.314;11.562;2024-03-08T13:56:00;20.30;60.10
1956;DHT22;978;48.314;11.562;2024-03-08T13:58:28;20.30;60.10
1956;DHT22;978;48.314;11.562;2024-03-08T14:00:55;20.30;60.10
1956;DHT22;978;48.314;11.562;2024-03-08T14:03:22;20.30;60.10
1956;DHT22;978;48.314;11.562;2024-03-08T14:05:50;20.30;60.10
1956;DHT22;978;48.314;11.562;2024-03-08T14:08:17;20.30;60.10
1956;DHT22;978;48.314;11.562;2024-03-08T14:10:44;20.20;60.00
1956;DHT22;978;48.314;11.562;2024-03-08T14:13:12;20.30;60.70
1956;DHT22;978;48.314;11.562;2024-03-08T14:15:43;20.30;60.10
1956;DHT22;978;48.314;11.562;2024-03-08T14:18:11;20.30;60.70
1956;DHT22;978;48.314;11.562;2024-03-08T14:20:39;20.30;60.10
1956;DHT22;978;48.314;11.562;2024-03-08T14:23:07;20.30;60.10
1956;DHT22;978;48.314;11.562;2024-03-08T14:25:34;20.30;60.10
1956;DHT22;978;48.314;11.562;2024-03-08T14:28:01;18.10;58.90
1956;DHT22;978;48.314;11.562;2024-03-08T14:30:32;20.30;60.10
1956;DHT22;978;48.314;11.562;2024-03-08T14:33:01;20.30;60.10
1956;DHT22;978;48.314;11.562;2024-03-08T14:35:31;20.30;60.10
1956;DHT22;978;48.314;11.562;2024-03-08T14:37:58;20.30;60.10
1956;DHT22;978;48.314;11.562;2024-03-08T14:40:26;20.20;60.10
1956;DHT22;978;48.314;11.562;2024-03-08T14:42:53;20.30;60.10
1956;DHT22;978;48.314;11.562;2024-03-08T14:45:20;20.30;60.10
1956;DHT22;978;48.314;11.562;2024-03-08T14:47:47;20.30;60.10
1956;DHT22;978;48.314;11.562;2024-03-08T14:50:18;20.30;60.10
1956;DHT22;978;48.314;11.562;2024-03-08T14:52:45;20.30;60.10
1956;DHT22;978;48.314;11.562;2024-03-08T14:55:14;20.30;60.10
1956;DHT22;978;48.314;11.562;2024-03-08T14:57:41;20.30;60.10
1956;DHT22;978;48.314;11.562;2024-03-08T15:00:12;20.30;60.10
1956;DHT22;978;48.314;11.562;2024-03-08T15:02:42;20.30;60.10
1956;DHT22;978;48.314;11.562;2024-03-08T15:05:10;20.30;60.10
1956;DHT22;978;48.314;11.562;2024-03-08T15:07:40;20.30;60.10
1956;DHT22;978;48.314;11.562;2024-03-08T15:10:08;20.20;60.00
1956;DHT22;978;48.314;11.562;2024-03-08T15:12:40;20.30;60.00
1956;DHT22;978;48.314;11.562;2024-03-08T15:15:08;20.30;60.10
1956;DHT22;978;48.314;11.562;2024-03-08T15:17:36;20.30;60.10
1956;DHT22;978;48.314;11.562;2024-03-08T15:20:06;20.20;60.00
1956;DHT22;978;48.314;11.562;2024-03-08T15:22:42;20.30;60.00
1956;DHT22;978;48.314;11.562;2024-03-08T15:25:10;20.20;60.00
1956;DHT22;978;48.314;11.562;2024-03-08T15:27:46;20.30;60.10
1956;DHT22;978;48.314;11.562;2024-03-08T15:30:14;20.30;60.10
1956;DHT22;978;48.314;11.562;2024-03-08T15:32:44;20.30;60.00
1956;DHT22;978;48.314;11.562;2024-03-08T15:35:11;20.20;60.00
1956;DHT22;978;48.314;11.562;2024-03-08T15:37:41;20.30;60.10
1956;DHT22;978;48.314;11.562;2024-03-08T15:40:10;20.30;60.00
1956;DHT22;978;48.314;11.562;2024-03-08T15:42:48;20.30;60.10
1956;DHT22;978;48.314;11.562;2024-03-08T15:45:16;20.30;60.10
1956;DHT22;978;48.314;11.562;2024-03-08T15:47:44;20.30;60.10
1956;DHT22;978;48.314;11.562;2024-03-08T15:50:12;20.30;60.30
1956;DHT22;978;48.314;11.562;2024-03-08T15:52:44;20.20;59.70
1956;DHT22;978;48.314;11.562;2024-03-08T15:55:14;20.30;60.30
1956;DHT22;978;48.314;11.562;2024-03-08T15:57:46;20.30;60.30
1956;DHT22;978;48.314;11.562;2024-03-08T16:00:18;20.30;60.90
1956;DHT22;978;48.314;11.562;2024-03-08T16:03:00;20.30;60.20
1956;DHT22;978;48.314;11.562;2024-03-08T16:05:33;20.30;60.20
1956;DHT22;978;48.314;11.562;2024-03-08T16:08:02;20.30;60.20
1956;DHT22;978;48.314;11.562;2024-03-08T16:10:29;22.60;61.00